createdAt,value
2022-10-28T00:00:01.285Z,99766.19
2022-10-28T00:00:14.611Z,99765.25
2022-10-28T00:00:47.371Z,99773.13
2022-10-28T00:01:07.717Z,99770.47
2022-10-28T00:01:22.288Z,99767.81
2022-10-28T00:01:35.169Z,99765.16
2022-10-28T00:01:48.390Z,99774.91
2022-10-28T00:02:01.363Z,99769.59
2022-10-28T00:02:14.289Z,99774.91
2022-10-28T00:02:27.176Z,99766.06
2022-10-28T00:02:40.956Z,99772.25
2022-10-28T00:02:54.086Z,99767.81
2022-10-28T00:03:07.182Z,99766.94
2022-10-28T00:03:20.051Z,99772.25
2022-10-28T00:03:32.965Z,99767.88
2022-10-28T00:03:47.491Z,99764.34
2022-10-28T00:04:00.828Z,99763.53
2022-10-28T00:04:33.555Z,99769.66
2022-10-28T00:04:46.373Z,99766.94
2022-10-28T00:04:59.168Z,99771.25
2022-10-28T00:05:11.974Z,99771.19
2022-10-28T00:05:24.845Z,99771.03
2022-10-28T00:05:37.647Z,99770.19
2022-10-28T00:05:50.611Z,99768.44
2022-10-28T00:06:11.294Z,99766.69
2022-10-28T00:06:32.644Z,99776.28
2022-10-28T00:07:03.993Z,99767.47
2022-10-28T00:07:16.844Z,99767.56
2022-10-28T00:07:29.887Z,99766.84
2022-10-28T00:07:43.192Z,99761.66
2022-10-28T00:07:56.166Z,99767.91
2022-10-28T00:08:09.053Z,99762.59
2022-10-28T00:08:21.959Z,99771.41
2022-10-28T00:08:34.839Z,99768.75
2022-10-28T00:09:11.282Z,99769.62
2022-10-28T00:09:25.184Z,99769.41
2022-10-28T00:09:37.996Z,99769.41
2022-10-28T00:09:50.878Z,99768.69
2022-10-28T00:10:23.623Z,99759.84
2022-10-28T00:10:39.464Z,99767.16
2022-10-28T00:10:54.826Z,99763.66
2022-10-28T00:11:32.472Z,99771.69
2022-10-28T00:11:45.714Z,99763.66
2022-10-28T00:11:58.551Z,99765.34
2022-10-28T00:12:11.424Z,99766.28
2022-10-28T00:12:24.676Z,99767.19
2022-10-28T00:13:08.216Z,99765.44
2022-10-28T00:13:21.400Z,99767.91
2022-10-28T00:13:34.573Z,99767.91
2022-10-28T00:13:47.817Z,99766.09
2022-10-28T00:14:04.428Z,99764.34
2022-10-28T00:14:35.493Z,99764.34
2022-10-28T00:14:48.337Z,99768.78
2022-10-28T00:15:01.157Z,99766.19
2022-10-28T00:15:14.022Z,99770.63
2022-10-28T00:15:26.821Z,99767.91
2022-10-28T00:15:39.635Z,99767.06
2022-10-28T00:15:52.480Z,99763.56
2022-10-28T00:16:19.736Z,99765.41
2022-10-28T00:16:33.849Z,99763.63
2022-10-28T00:16:46.669Z,99765.44
2022-10-28T00:16:59.499Z,99772.50
2022-10-28T00:17:12.716Z,99768.06
2022-10-28T00:17:45.414Z,99765.44
2022-10-28T00:18:18.165Z,99768.97
2022-10-28T00:18:30.972Z,99769.84
2022-10-28T00:18:44.008Z,99764.53
2022-10-28T00:18:58.320Z,99762.69
2022-10-28T00:19:11.786Z,99766.28
2022-10-28T00:19:27.528Z,99766.31
2022-10-28T00:19:40.423Z,99769.81
2022-10-28T00:19:53.234Z,99777.81
2022-10-28T00:20:25.973Z,99763.66
2022-10-28T00:20:38.771Z,99767.28
2022-10-28T00:20:51.571Z,99768.16
2022-10-28T00:21:06.906Z,99769.06
2022-10-28T00:21:21.939Z,99766.44
2022-10-28T00:21:35.781Z,99766.38
2022-10-28T00:21:48.690Z,99774.38
2022-10-28T00:22:01.509Z,99771.69
2022-10-28T00:22:34.227Z,99771.69
2022-10-28T00:22:47.096Z,99775.06
2022-10-28T00:22:59.894Z,99768.78
2022-10-28T00:23:12.714Z,99768.78
2022-10-28T00:23:26.017Z,99768.72
2022-10-28T00:23:38.856Z,99766.06
2022-10-28T00:24:12.512Z,99770.47
2022-10-28T00:24:25.424Z,99766.03
2022-10-28T00:24:58.161Z,99769.59
2022-10-28T00:25:11.007Z,99775.06
2022-10-28T00:25:24.975Z,99768.94
2022-10-28T00:25:37.829Z,99773.28
2022-10-28T00:25:54.557Z,99780.22
2022-10-28T00:26:31.091Z,99772.25
2022-10-28T00:26:43.999Z,99768.88
2022-10-28T00:26:57.286Z,99767.09
2022-10-28T00:27:10.083Z,99773.13
2022-10-28T00:27:22.975Z,99764.28
2022-10-28T00:27:35.804Z,99773.22
2022-10-28T00:27:49.117Z,99769.75
2022-10-28T00:28:01.957Z,99769.69
2022-10-28T00:28:14.857Z,99768.78
2022-10-28T00:28:27.653Z,99768.78
2022-10-28T00:29:05.287Z,99774.03
2022-10-28T00:29:19.086Z,99773.94
2022-10-28T00:29:32.277Z,99772.25
2022-10-28T00:30:05.378Z,99771.41
2022-10-28T00:30:38.126Z,99775.88
2022-10-28T00:31:11.830Z,99773.31
2022-10-28T00:31:25.759Z,99776.81
2022-10-28T00:31:38.716Z,99775.97
2022-10-28T00:31:52.662Z,99773.31
2022-10-28T00:32:05.686Z,99775.16
2022-10-28T00:32:18.534Z,99769.75
2022-10-28T00:32:31.585Z,99773.28
2022-10-28T00:32:44.423Z,99772.44
2022-10-28T00:32:57.262Z,99772.44
2022-10-28T00:33:10.076Z,99770.75
2022-10-28T00:33:22.893Z,99771.59
2022-10-28T00:33:35.754Z,99772.44
2022-10-28T00:34:11.517Z,99767.16
2022-10-28T00:34:24.410Z,99763.66
2022-10-28T00:34:37.707Z,99769.81
2022-10-28T00:34:50.541Z,99769.91
2022-10-28T00:35:03.408Z,99775.16
2022-10-28T00:35:36.139Z,99766.31
2022-10-28T00:36:09.161Z,99769.84
2022-10-28T00:36:26.721Z,99769.09
2022-10-28T00:36:41.662Z,99768.16
2022-10-28T00:36:54.455Z,99773.41
2022-10-28T00:37:07.263Z,99761.88
2022-10-28T00:37:20.100Z,99768.88
2022-10-28T00:37:33.055Z,99770.66
2022-10-28T00:37:45.845Z,99765.34
2022-10-28T00:37:58.687Z,99768.97
2022-10-28T00:38:11.516Z,99768.97
2022-10-28T00:38:24.341Z,99768.09
2022-10-28T00:38:57.230Z,99771.69
2022-10-28T00:39:23.486Z,99767.28
2022-10-28T00:39:36.350Z,99763.75
2022-10-28T00:39:49.200Z,99772.59
2022-10-28T00:40:02.018Z,99769.09
2022-10-28T00:40:14.834Z,99768.16
2022-10-28T00:40:27.627Z,99770.00
2022-10-28T00:40:40.467Z,99763.88
2022-10-28T00:41:15.558Z,99768.22
2022-10-28T00:41:53.070Z,99771.94
2022-10-28T00:42:07.268Z,99771.16
2022-10-28T00:42:21.138Z,99767.56
2022-10-28T00:42:33.968Z,99761.34
2022-10-28T00:42:46.780Z,99763.13
2022-10-28T00:42:59.591Z,99772.78
2022-10-28T00:43:43.049Z,99761.22
2022-10-28T00:43:57.950Z,99767.44
2022-10-28T00:44:48.603Z,99764.78
2022-10-28T00:45:02.172Z,99769.19
2022-10-28T00:45:14.994Z,99757.63
2022-10-28T00:45:27.839Z,99761.16
2022-10-28T00:45:40.927Z,99768.16
2022-10-28T00:46:20.217Z,99767.38
2022-10-28T00:46:53.336Z,99763.81
2022-10-28T00:47:52.191Z,99764.75
2022-10-28T00:48:24.508Z,99765.50
2022-10-28T00:48:41.308Z,99762.78
2022-10-28T00:49:32.978Z,99763.66
2022-10-28T00:49:46.398Z,99762.09
2022-10-28T00:50:18.800Z,99757.59
2022-10-28T00:50:54.321Z,99760.25
2022-10-28T00:51:07.834Z,99762.94
2022-10-28T00:51:21.567Z,99762.00
2022-10-28T00:51:34.413Z,99763.72
2022-10-28T00:51:48.494Z,99753.00
2022-10-28T00:52:10.851Z,99762.66
2022-10-28T00:52:44.497Z,99758.31
2022-10-28T00:53:03.195Z,99754.78
2022-10-28T00:53:21.538Z,99757.47
2022-10-28T00:53:34.547Z,99756.63
2022-10-28T00:53:48.261Z,99759.28
2022-10-28T00:54:01.099Z,99753.03
2022-10-28T00:54:13.923Z,99751.31
2022-10-28T00:54:26.732Z,99755.69
2022-10-28T00:54:39.598Z,99759.19
2022-10-28T00:55:14.138Z,99755.66
2022-10-28T00:55:45.677Z,99754.72
2022-10-28T00:55:59.865Z,99757.47
2022-10-28T00:56:34.074Z,99754.84
2022-10-28T00:56:48.548Z,99759.34
2022-10-28T00:57:22.464Z,99754.94
2022-10-28T00:57:56.722Z,99759.31
2022-10-28T00:58:09.629Z,99753.91
2022-10-28T00:58:42.377Z,99754.88
2022-10-28T00:58:56.158Z,99754.06
2022-10-28T00:59:17.179Z,99761.25
2022-10-28T00:59:32.440Z,99758.56
2022-10-28T00:59:47.401Z,99753.28
2022-10-28T01:00:20.220Z,99757.72
2022-10-28T01:00:33.019Z,99759.56
2022-10-28T01:01:04.416Z,99753.25
2022-10-28T01:01:37.216Z,99755.06
2022-10-28T01:01:50.235Z,99751.50
2022-10-28T01:02:03.583Z,99746.19
2022-10-28T01:02:16.826Z,99753.19
2022-10-28T01:02:29.766Z,99754.94
2022-10-28T01:02:47.708Z,99760.28
2022-10-28T01:03:00.635Z,99754.91
2022-10-28T01:03:13.455Z,99754.03
2022-10-28T01:03:26.299Z,99756.69
2022-10-28T01:03:39.199Z,99751.47
2022-10-28T01:03:51.998Z,99750.59
2022-10-28T01:04:05.208Z,99759.38
2022-10-28T01:04:37.960Z,99759.31
2022-10-28T01:04:51.095Z,99752.19
2022-10-28T01:05:04.196Z,99759.28
2022-10-28T01:05:22.674Z,99755.75
2022-10-28T01:05:55.395Z,99755.81
2022-10-28T01:06:08.221Z,99751.31
2022-10-28T01:06:21.054Z,99751.25
2022-10-28T01:06:33.891Z,99757.37
2022-10-28T01:06:46.799Z,99750.34
2022-10-28T01:07:00.379Z,99755.69
2022-10-28T01:07:13.589Z,99753.09
2022-10-28T01:07:26.394Z,99757.53
2022-10-28T01:07:39.212Z,99754.06
2022-10-28T01:07:52.424Z,99754.16
2022-10-28T01:08:05.544Z,99750.59
2022-10-28T01:08:18.343Z,99755.06
2022-10-28T01:08:32.202Z,99750.69
2022-10-28T01:09:05.018Z,99755.06
2022-10-28T01:09:17.909Z,99755.91
2022-10-28T01:09:30.763Z,99752.44
2022-10-28T01:09:43.638Z,99748.03
2022-10-28T01:10:16.487Z,99748.03
2022-10-28T01:10:57.932Z,99748.91
2022-10-28T01:11:25.676Z,99752.34
2022-10-28T01:12:15.706Z,99756.72
2022-10-28T01:12:46.508Z,99758.34
2022-10-28T01:13:11.752Z,99753.38
2022-10-28T01:13:31.605Z,99750.69
2022-10-28T01:13:59.288Z,99752.47
2022-10-28T01:14:28.214Z,99742.72
2022-10-28T01:15:08.495Z,99747.97
2022-10-28T01:15:23.949Z,99753.34
2022-10-28T01:15:45.197Z,99754.12
2022-10-28T01:16:06.996Z,99750.59
2022-10-28T01:16:28.472Z,99751.50
2022-10-28T01:16:53.325Z,99753.28
2022-10-28T01:17:08.583Z,99756.00
2022-10-28T01:17:33.511Z,99756.81
2022-10-28T01:17:49.046Z,99750.50
2022-10-28T01:18:17.096Z,99753.16
2022-10-28T01:18:44.266Z,99748.84
2022-10-28T01:19:53.848Z,99755.03
2022-10-28T01:20:51.457Z,99754.06
2022-10-28T01:21:46.174Z,99752.44
2022-10-28T01:22:44.999Z,99756.03
2022-10-28T01:23:23.408Z,99754.06
2022-10-28T01:24:03.677Z,99755.81
2022-10-28T01:24:27.067Z,99754.00
2022-10-28T01:24:50.089Z,99755.69
2022-10-28T01:25:53.311Z,99757.47
2022-10-28T01:26:36.659Z,99756.00
2022-10-28T01:27:59.038Z,99759.53
2022-10-28T01:28:23.780Z,99748.13
2022-10-28T01:28:48.436Z,99753.38
2022-10-28T01:29:33.116Z,99752.53
2022-10-28T01:30:26.912Z,99750.78
2022-10-28T01:30:57.595Z,99747.16
2022-10-28T01:31:54.505Z,99739.97
2022-10-28T01:32:50.761Z,99741.75
2022-10-28T01:33:15.209Z,99748.66
2022-10-28T01:33:34.227Z,99747.94
2022-10-28T01:34:27.828Z,99743.50
2022-10-28T01:34:53.695Z,99739.91
2022-10-28T01:35:24.867Z,99749.87
2022-10-28T01:35:49.157Z,99745.38
2022-10-28T01:36:27.527Z,99743.41
2022-10-28T01:36:50.612Z,99744.38
2022-10-28T01:37:15.660Z,99744.38
2022-10-28T01:37:36.612Z,99742.66
2022-10-28T01:38:11.231Z,99744.41
2022-10-28T01:38:56.010Z,99748.84
2022-10-28T01:39:47.469Z,99740.16
2022-10-28T01:40:07.384Z,99752.56
2022-10-28T01:40:54.467Z,99742.78
2022-10-28T01:41:22.480Z,99748.16
2022-10-28T01:41:44.001Z,99747.31
2022-10-28T01:41:59.665Z,99744.63
2022-10-28T01:42:32.265Z,99747.31
2022-10-28T01:43:05.179Z,99750.88
2022-10-28T01:43:21.830Z,99747.31
2022-10-28T01:59:44.545Z,99735.16
2022-10-28T01:59:58.327Z,99735.00
2022-10-28T02:00:11.833Z,99736.69
2022-10-28T02:00:24.990Z,99732.25
2022-10-28T02:00:38.293Z,99733.13
2022-10-28T02:00:51.356Z,99734.00
2022-10-28T02:01:05.462Z,99734.00
2022-10-28T02:01:38.307Z,99734.91
2022-10-28T02:02:14.702Z,99731.53
2022-10-28T02:02:47.499Z,99736.72
2022-10-28T02:03:01.352Z,99730.66
2022-10-28T02:03:14.328Z,99733.22
2022-10-28T02:03:28.160Z,99735.88
2022-10-28T02:03:41.186Z,99729.66
2022-10-28T02:03:54.050Z,99735.78
2022-10-28T02:04:07.083Z,99730.53
2022-10-28T02:04:39.812Z,99734.91
2022-10-28T02:05:05.473Z,99729.66
2022-10-28T02:06:25.867Z,99733.16
2022-10-28T02:06:38.858Z,99734.97
2022-10-28T02:06:56.183Z,99732.31
2022-10-28T02:07:09.322Z,99729.59
2022-10-28T02:07:22.273Z,99733.13
2022-10-28T02:07:50.949Z,99732.16
2022-10-28T02:08:20.928Z,99730.41
2022-10-28T02:08:44.628Z,99733.06
2022-10-28T02:09:23.028Z,99730.47
2022-10-28T02:10:15.452Z,99729.66
2022-10-28T02:10:34.244Z,99734.91
2022-10-28T02:51:56.381Z,99721.69
2022-10-28T02:52:09.426Z,99729.59
2022-10-28T02:52:22.476Z,99721.69
2022-10-28T02:52:35.818Z,99724.34
2022-10-28T02:53:19.420Z,99729.66
2022-10-28T02:53:59.683Z,99724.34
2022-10-28T02:54:35.089Z,99731.38
2022-10-28T02:55:08.257Z,99726.06
2022-10-28T02:55:21.464Z,99729.66
2022-10-28T02:55:36.764Z,99724.34
2022-10-28T02:55:51.270Z,99729.66
2022-10-28T02:56:04.337Z,99725.28
2022-10-28T02:56:55.427Z,99726.19
2022-10-28T02:57:44.949Z,99724.34
2022-10-28T02:57:57.760Z,99720.00
2022-10-28T02:58:10.654Z,99718.16
2022-10-28T02:58:23.668Z,99724.28
2022-10-28T02:58:56.399Z,99726.03
2022-10-28T02:59:11.407Z,99724.28
2022-10-28T02:59:24.760Z,99723.38
2022-10-28T03:00:01.141Z,99722.50
2022-10-28T03:00:34.161Z,99719.97
2022-10-28T03:01:07.633Z,99724.50
2022-10-28T03:01:20.899Z,99723.44
2022-10-28T03:01:53.608Z,99718.13
2022-10-28T03:02:14.787Z,99723.53
2022-10-28T03:02:28.239Z,99723.47
2022-10-28T03:02:41.287Z,99720.06
2022-10-28T03:02:54.133Z,99723.53
2022-10-28T03:03:26.869Z,99726.22
2022-10-28T03:03:40.003Z,99722.75
2022-10-28T03:03:53.222Z,99723.56
2022-10-28T03:04:06.370Z,99728.06
2022-10-28T03:04:19.369Z,99724.56
2022-10-28T03:04:52.235Z,99722.84
2022-10-28T03:05:05.940Z,99722.84
2022-10-28T03:05:18.807Z,99718.37
2022-10-28T03:05:51.550Z,99726.34
2022-10-28T03:06:04.423Z,99716.59
2022-10-28T03:06:17.289Z,99724.53
2022-10-28T03:06:30.162Z,99722.72
2022-10-28T03:06:42.988Z,99724.50
2022-10-28T03:06:55.786Z,99724.44
2022-10-28T03:07:08.578Z,99729.72
2022-10-28T03:07:41.472Z,99720.06
2022-10-28T03:07:54.645Z,99725.22
2022-10-28T03:08:07.680Z,99718.22
2022-10-28T03:08:40.459Z,99729.66
2022-10-28T03:08:53.805Z,99727.06
2022-10-28T03:09:06.622Z,99720.88
2022-10-28T03:09:39.433Z,99727.97
2022-10-28T03:10:12.261Z,99729.75
2022-10-28T03:10:25.155Z,99731.50
2022-10-28T03:10:37.959Z,99727.00
2022-10-28T03:10:51.023Z,99723.53
2022-10-28T03:11:03.827Z,99720.88
2022-10-28T03:11:16.749Z,99727.00
2022-10-28T03:11:29.542Z,99725.28
2022-10-28T03:11:42.482Z,99725.22
2022-10-28T03:11:55.316Z,99727.00
2022-10-28T03:12:08.190Z,99723.47
2022-10-28T03:12:21.020Z,99719.91
2022-10-28T03:12:53.786Z,99731.41
2022-10-28T03:13:26.563Z,99725.31
2022-10-28T03:13:39.365Z,99727.09
2022-10-28T03:13:52.254Z,99723.62
2022-10-28T03:14:05.250Z,99728.94
2022-10-28T03:14:18.041Z,99727.22
2022-10-28T03:14:30.878Z,99724.59
2022-10-28T03:14:43.756Z,99731.59
2022-10-28T03:14:56.596Z,99734.19
2022-10-28T03:15:09.776Z,99730.66
2022-10-28T03:15:22.784Z,99731.59
2022-10-28T03:15:35.584Z,99722.75
2022-10-28T03:15:48.417Z,99728.94
2022-10-28T03:16:01.245Z,99725.38
2022-10-28T03:16:14.081Z,99728.84
2022-10-28T03:16:26.904Z,99734.16
2022-10-28T03:16:39.707Z,99727.09
2022-10-28T03:16:52.552Z,99731.53
2022-10-28T03:17:05.511Z,99729.75
2022-10-28T03:17:18.333Z,99721.84
2022-10-28T03:17:31.738Z,99728.94
2022-10-28T03:17:44.549Z,99724.50
2022-10-28T03:17:57.392Z,99737.72
2022-10-28T03:18:10.209Z,99731.53
2022-10-28T03:18:23.030Z,99725.38
2022-10-28T03:18:35.863Z,99727.19
2022-10-28T03:18:49.099Z,99729.00
2022-10-28T03:19:06.538Z,99728.13
2022-10-28T03:19:19.341Z,99730.75
2022-10-28T03:19:32.162Z,99727.22
2022-10-28T03:19:44.979Z,99730.78
2022-10-28T03:19:57.820Z,99732.47
2022-10-28T03:20:11.110Z,99737.72
2022-10-28T03:20:23.926Z,99733.28
2022-10-28T03:20:36.768Z,99733.22
2022-10-28T03:21:10.464Z,99735.00
2022-10-28T03:21:43.240Z,99731.44
2022-10-28T03:21:56.081Z,99735.97
2022-10-28T03:22:30.656Z,99741.25
2022-10-28T03:22:44.250Z,99740.38
2022-10-28T03:22:57.225Z,99733.31
2022-10-28T03:23:10.194Z,99731.63
2022-10-28T03:23:23.052Z,99733.41
2022-10-28T03:23:35.946Z,99738.72
2022-10-28T03:23:48.771Z,99737.00
2022-10-28T03:24:01.611Z,99731.66
2022-10-28T03:24:14.452Z,99738.72
2022-10-28T03:24:27.440Z,99734.25
2022-10-28T03:24:40.265Z,99733.31
2022-10-28T03:24:53.069Z,99731.66
2022-10-28T03:25:05.996Z,99733.41
2022-10-28T03:25:18.808Z,99736.06
2022-10-28T03:25:31.670Z,99737.75
2022-10-28T03:25:44.525Z,99736.91
2022-10-28T03:25:57.373Z,99729.84
2022-10-28T03:26:10.191Z,99733.41
2022-10-28T03:26:23.006Z,99741.37
2022-10-28T03:26:35.820Z,99741.34
2022-10-28T03:27:08.537Z,99740.41
2022-10-28T03:27:21.374Z,99736.84
2022-10-28T03:27:34.189Z,99737.66
2022-10-28T03:28:06.931Z,99729.72
2022-10-28T03:28:24.390Z,99739.25
2022-10-28T03:28:37.259Z,99735.69
2022-10-28T03:29:10.001Z,99736.66
2022-10-28T03:29:45.694Z,99742.94
2022-10-28T03:29:59.051Z,99736.72
2022-10-28T03:30:11.947Z,99732.31
2022-10-28T03:30:24.763Z,99735.84
2022-10-28T03:30:37.678Z,99735.88
2022-10-28T03:30:50.469Z,99743.94
2022-10-28T03:31:23.214Z,99732.47
2022-10-28T03:31:36.048Z,99736.94
2022-10-28T03:31:48.926Z,99739.53
2022-10-28T03:32:01.749Z,99736.91
2022-10-28T03:32:14.685Z,99736.84
2022-10-28T03:32:31.514Z,99730.66
2022-10-28T03:32:44.373Z,99735.09
2022-10-28T03:33:17.112Z,99733.41
2022-10-28T03:33:49.890Z,99739.50
2022-10-28T03:34:22.622Z,99735.06
2022-10-28T03:34:35.423Z,99734.37
2022-10-28T03:34:48.250Z,99735.22
2022-10-28T03:35:21.014Z,99731.69
2022-10-28T03:35:33.869Z,99728.09
2022-10-28T03:35:46.714Z,99722.81
2022-10-28T03:35:59.520Z,99734.25
2022-10-28T03:36:32.391Z,99733.38
2022-10-28T03:36:45.235Z,99729.84
2022-10-28T03:36:58.127Z,99727.19
2022-10-28T03:37:11.145Z,99726.28
2022-10-28T03:37:23.957Z,99727.22
2022-10-28T03:37:36.828Z,99730.75
2022-10-28T03:38:09.582Z,99726.22
2022-10-28T03:38:22.375Z,99725.44
2022-10-28T03:38:35.213Z,99729.91
2022-10-28T03:38:48.050Z,99726.34
2022-10-28T03:39:00.894Z,99725.47
2022-10-28T03:39:13.685Z,99731.66
2022-10-28T03:39:26.551Z,99725.47
2022-10-28T03:40:02.374Z,99723.66
2022-10-28T03:40:35.114Z,99717.44
2022-10-28T03:40:49.098Z,99720.16
2022-10-28T03:41:01.940Z,99722.81
2022-10-28T03:41:14.870Z,99714.84
2022-10-28T03:41:27.695Z,99735.09
2022-10-28T03:41:40.484Z,99721.03
2022-10-28T03:41:53.379Z,99725.44
2022-10-28T03:42:44.555Z,99726.34
2022-10-28T03:42:57.395Z,99719.13
2022-10-28T03:43:30.136Z,99726.19
2022-10-28T03:43:43.083Z,99728.06
2022-10-28T03:43:55.916Z,99719.22
2022-10-28T03:44:28.680Z,99724.59
2022-10-28T03:44:49.424Z,99726.34
2022-10-28T03:45:02.217Z,99723.62
2022-10-28T03:45:15.091Z,99726.22
2022-10-28T03:45:36.057Z,99727.09
2022-10-28T03:45:49.127Z,99724.44
2022-10-28T03:46:11.089Z,99722.81
2022-10-28T03:46:23.917Z,99732.47
2022-10-28T03:46:36.720Z,99724.59
2022-10-28T03:46:49.572Z,99728.13
2022-10-28T03:47:02.402Z,99727.25
2022-10-28T03:47:15.276Z,99722.81
2022-10-28T03:47:28.361Z,99726.34
2022-10-28T03:48:01.091Z,99726.37
2022-10-28T03:48:14.009Z,99727.34
2022-10-28T03:48:26.826Z,99730.00
2022-10-28T03:48:39.632Z,99730.88
2022-10-28T03:48:52.461Z,99730.81
2022-10-28T03:49:05.265Z,99732.66
2022-10-28T03:49:18.156Z,99732.69
2022-10-28T03:49:50.901Z,99732.66
2022-10-28T03:50:03.841Z,99727.34
2022-10-28T03:50:16.645Z,99727.28
2022-10-28T03:50:29.430Z,99725.56
2022-10-28T03:50:42.305Z,99730.03
2022-10-28T03:51:15.054Z,99730.03
2022-10-28T03:51:27.876Z,99728.31
2022-10-28T03:51:40.694Z,99727.37
2022-10-28T03:51:53.529Z,99725.59
2022-10-28T03:52:06.400Z,99728.22
2022-10-28T03:52:19.220Z,99725.56
2022-10-28T03:52:52.015Z,99729.91
2022-10-28T03:53:27.603Z,99727.19
2022-10-28T03:53:43.336Z,99730.72
2022-10-28T03:53:56.121Z,99731.59
2022-10-28T03:54:08.914Z,99731.66
2022-10-28T03:54:21.739Z,99729.91
2022-10-28T03:54:34.576Z,99728.16
2022-10-28T03:54:47.469Z,99729.09
2022-10-28T03:55:00.345Z,99727.34
2022-10-28T03:55:13.673Z,99726.47
2022-10-28T03:55:27.567Z,99725.56
2022-10-28T03:56:18.863Z,99730.91
2022-10-28T03:56:31.655Z,99731.69
2022-10-28T03:56:44.483Z,99726.34
2022-10-28T03:56:57.308Z,99729.84
2022-10-28T03:57:10.133Z,99723.78
2022-10-28T03:57:22.964Z,99730.91
2022-10-28T03:57:35.785Z,99729.13
2022-10-28T03:57:48.671Z,99733.56
2022-10-28T03:58:21.556Z,99726.44
2022-10-28T03:58:37.293Z,99730.09
2022-10-28T03:59:06.038Z,99726.63
2022-10-28T03:59:20.272Z,99727.47
2022-10-28T03:59:33.347Z,99731.91
2022-10-28T03:59:46.169Z,99734.53
2022-10-28T04:00:18.929Z,99732.78
2022-10-28T04:00:31.744Z,99729.25
2022-10-28T04:00:44.548Z,99732.78
2022-10-28T04:00:57.428Z,99730.19
2022-10-28T04:01:10.498Z,99723.97
2022-10-28T04:01:23.875Z,99731.91
2022-10-28T04:01:36.858Z,99733.66
2022-10-28T04:01:49.933Z,99732.75
2022-10-28T04:02:02.915Z,99728.25
2022-10-28T04:02:16.004Z,99728.25
2022-10-28T04:02:28.984Z,99729.13
2022-10-28T04:02:41.853Z,99728.25
2022-10-28T04:02:55.236Z,99729.13
2022-10-28T04:03:08.240Z,99728.22
2022-10-28T04:03:39.711Z,99730.88
2022-10-28T04:03:52.528Z,99730.00
2022-10-28T04:04:05.745Z,99731.72
2022-10-28T04:04:18.579Z,99720.25
2022-10-28T04:04:31.484Z,99724.66
2022-10-28T04:04:44.302Z,99730.81
2022-10-28T04:04:57.146Z,99727.28
2022-10-28T04:05:09.979Z,99726.53
2022-10-28T04:05:23.030Z,99723.81
2022-10-28T04:05:35.877Z,99722.84
2022-10-28T04:05:48.816Z,99729.00
2022-10-28T04:06:01.645Z,99729.84
2022-10-28T04:06:14.555Z,99724.69
2022-10-28T04:06:27.427Z,99722.09
2022-10-28T04:06:40.597Z,99722.94
2022-10-28T04:06:53.410Z,99717.69
2022-10-28T04:07:06.429Z,99722.03
2022-10-28T04:07:19.285Z,99725.66
2022-10-28T04:07:32.151Z,99722.94
2022-10-28T04:07:45.016Z,99718.50
2022-10-28T04:07:57.818Z,99724.66
2022-10-28T04:08:10.664Z,99721.16
2022-10-28T04:08:23.512Z,99732.66
2022-10-28T04:08:37.183Z,99723.81
2022-10-28T04:09:09.934Z,99728.22
2022-10-28T04:09:23.743Z,99727.37
2022-10-28T04:09:36.618Z,99719.37
2022-10-28T04:09:51.450Z,99724.66
2022-10-28T04:10:24.154Z,99722.84
2022-10-28T04:10:37.135Z,99725.47
2022-10-28T04:10:49.973Z,99723.69
2022-10-28T04:11:02.811Z,99721.03
2022-10-28T04:11:15.662Z,99718.31
2022-10-28T04:11:28.459Z,99726.28
2022-10-28T04:11:41.242Z,99721.88
2022-10-28T04:11:54.110Z,99719.19
2022-10-28T04:12:22.754Z,99723.62
2022-10-28T04:12:35.599Z,99721.78
2022-10-28T04:12:48.441Z,99725.31
2022-10-28T04:13:05.283Z,99719.13
2022-10-28T04:13:38.088Z,99720.97
2022-10-28T04:14:10.819Z,99721.91
2022-10-28T04:14:23.610Z,99713.88
2022-10-28T04:14:36.454Z,99721.84
2022-10-28T04:14:51.692Z,99716.53
2022-10-28T04:15:04.894Z,99716.53
2022-10-28T04:15:17.835Z,99714.78
2022-10-28T04:15:30.841Z,99711.22
2022-10-28T04:15:43.752Z,99709.47
2022-10-28T04:15:56.691Z,99713.88
2022-10-28T04:16:09.551Z,99715.66
2022-10-28T04:16:42.290Z,99716.59
2022-10-28T04:16:55.102Z,99713.00
2022-10-28T04:17:07.919Z,99716.53
2022-10-28T04:17:20.751Z,99714.78
2022-10-28T04:17:36.365Z,99727.25
2022-10-28T04:17:49.194Z,99714.06
2022-10-28T04:18:02.212Z,99717.66
2022-10-28T04:18:31.931Z,99715.84
2022-10-28T04:18:44.727Z,99719.37
2022-10-28T04:18:57.695Z,99715.00
2022-10-28T04:19:19.950Z,99715.81
2022-10-28T04:19:32.816Z,99710.41
2022-10-28T04:19:45.658Z,99706.13
2022-10-28T04:19:58.458Z,99712.37
2022-10-28T04:20:19.345Z,99715.03
2022-10-28T04:20:32.284Z,99708.78
2022-10-28T04:20:45.921Z,99713.22
2022-10-28T04:20:58.749Z,99710.59
2022-10-28T04:21:12.081Z,99707.12
2022-10-28T04:21:24.954Z,99711.47
2022-10-28T04:21:57.682Z,99706.94
2022-10-28T04:22:10.631Z,99707.69
2022-10-28T04:22:23.557Z,99708.62
2022-10-28T04:22:36.353Z,99709.53
2022-10-28T04:22:57.138Z,99708.69
2022-10-28T04:23:13.276Z,99705.19
2022-10-28T04:23:26.162Z,99704.37
2022-10-28T04:23:39.033Z,99706.16
2022-10-28T04:24:11.792Z,99699.97
2022-10-28T04:24:24.652Z,99705.19
2022-10-28T04:24:37.465Z,99702.50
2022-10-28T04:25:10.486Z,99700.66
2022-10-28T04:25:23.683Z,99697.13
2022-10-28T04:25:36.488Z,99699.78
2022-10-28T04:25:53.671Z,99703.31
2022-10-28T04:26:06.589Z,99699.69
2022-10-28T04:26:52.428Z,99695.34
2022-10-28T04:27:25.208Z,99702.28
2022-10-28T04:27:38.121Z,99696.06
2022-10-28T04:28:10.888Z,99700.44
2022-10-28T04:28:26.536Z,99701.25
2022-10-28T04:28:39.399Z,99698.50
2022-10-28T04:28:52.270Z,99694.00
2022-10-28T04:29:05.241Z,99693.16
2022-10-28T04:29:18.255Z,99697.59
2022-10-28T04:29:51.943Z,99701.16
2022-10-28T04:30:05.321Z,99697.69
2022-10-28T04:30:38.114Z,99696.87
2022-10-28T04:30:51.027Z,99707.50
2022-10-28T04:31:03.876Z,99702.19
2022-10-28T04:31:19.695Z,99700.56
2022-10-28T04:31:32.495Z,99698.81
2022-10-28T04:31:48.597Z,99705.03
2022-10-28T04:32:04.349Z,99701.47
2022-10-28T04:32:17.165Z,99702.34
2022-10-28T04:32:30.156Z,99699.53
2022-10-28T04:32:43.581Z,99698.69
2022-10-28T04:32:56.568Z,99697.81
2022-10-28T04:33:48.084Z,99700.47
2022-10-28T04:34:00.937Z,99701.47
2022-10-28T04:34:13.764Z,99697.94
2022-10-28T04:34:26.629Z,99693.50
2022-10-28T04:34:59.360Z,99694.44
2022-10-28T04:35:12.510Z,99699.78
2022-10-28T04:35:45.336Z,99697.91
2022-10-28T04:35:58.151Z,99696.00
2022-10-28T04:36:10.988Z,99697.81
2022-10-28T04:36:23.784Z,99704.94
2022-10-28T04:36:53.913Z,99693.56
2022-10-28T04:37:06.846Z,99698.16
2022-10-28T04:37:40.027Z,99697.22
2022-10-28T04:37:53.080Z,99692.84
2022-10-28T04:38:07.168Z,99693.75
2022-10-28T04:38:41.824Z,99695.50
2022-10-28T04:38:54.720Z,99694.50
2022-10-28T04:39:08.357Z,99687.44
2022-10-28T04:39:21.447Z,99693.63
2022-10-28T04:39:34.225Z,99691.94
2022-10-28T04:39:47.073Z,99698.06
2022-10-28T04:39:59.941Z,99699.78
2022-10-28T04:40:32.686Z,99695.41
2022-10-28T04:40:48.353Z,99693.59
2022-10-28T04:41:01.158Z,99693.63
2022-10-28T04:41:14.477Z,99694.47
2022-10-28T04:41:45.948Z,99697.22
2022-10-28T04:42:18.663Z,99697.19
2022-10-28T04:42:47.165Z,99689.28
2022-10-28T04:42:59.994Z,99694.63
2022-10-28T04:43:12.888Z,99684.88
2022-10-28T04:43:25.718Z,99691.94